Tocito, New Mexico
Current Conditions -  °F | °C
As of 4:53 PM on Friday 21 Nov 2014 (Local Time) from KFMN Reporting Station
Clear Clear  
Wind Chill: 42°   Ceiling: Unl
Heat Index: 45°   Visibility: 10mi
Dew Point: 19°   Wind: 6mph
Humidity: 36%   Direction: 260°W
Pressure: 30.02"   Gusts: NA
Location:  36.3945°N, 108.769°W
Report Text: KFMN 212353Z 26005KT 10SM CLR 07/M07 A3002 RMK AO2 SLP175 T00721072 10111 20056 53005
Loading
Personal Weather Stations






























Interactive Weather Map New forecast layout! Learn more

10-Day Weather Forecast

Advertisements
Track Severe Weather on mobile